OAL418 SABE-SANU
Flight info
| Callsign | OAL418 |
|---|---|
| Flight time | 1h 40m |
| Altitude | 38000 |
| Route | ATOVO UW5 ROS UT653 PAMAL DCT ISUSA |
| Aircraft | A320/M-SDE3FGHIRWY/LB1 |
Departure
| Time | 2026-05-05 11:29 |
|---|---|
| Airport | Aeroparque Jorge Newbery (SABE) |
Arrival
| Time | 2026-05-05 13:09 |
|---|---|
| Airport | Domingo Faustino Sarmiento Airport (SANU) |
| Time | Latitude | Longitude | Altitude | Speed | Heading |
|---|---|---|---|---|---|
| 2026-05-05 11:19 | -34.55791 | -58.41381 | 32 ft | 0 kts | 355° |
| 2026-05-05 11:20 | -34.55787 | -58.41381 | 32 ft | 0 kts | 355° |
| 2026-05-05 11:20 | -34.55784 | -58.41384 | 32 ft | 1 kts | 314° |
| 2026-05-05 11:20 | -34.55751 | -58.41441 | 32 ft | 12 kts | 300° |
| 2026-05-05 11:21 | -34.55730 | -58.41538 | 32 ft | 13 kts | 252° |
| 2026-05-05 11:21 | -34.55783 | -58.41617 | 32 ft | 12 kts | 280° |
| 2026-05-05 11:21 | -34.55748 | -58.41717 | 32 ft | 14 kts | 298° |
| 2026-05-05 11:21 | -34.55693 | -58.41832 | 32 ft | 17 kts | 304° |
| 2026-05-05 11:22 | -34.55619 | -58.41962 | 32 ft | 20 kts | 304° |
| 2026-05-05 11:22 | -34.55531 | -58.42108 | 32 ft | 23 kts | 306° |
| 2026-05-05 11:22 | -34.55429 | -58.42275 | 32 ft | 25 kts | 307° |
| 2026-05-05 11:22 | -34.55378 | -58.42356 | 32 ft | 10 kts | 307° |
| 2026-05-05 11:23 | -34.55367 | -58.42380 | 32 ft | 0 kts | 289° |
| 2026-05-05 11:27 | -34.55363 | -58.42397 | 32 ft | 3 kts | 282° |
| 2026-05-05 11:27 | -34.55358 | -58.42438 | 32 ft | 6 kts | 268° |
| 2026-05-05 11:27 | -34.55385 | -58.42491 | 32 ft | 7 kts | 196° |
| 2026-05-05 11:28 | -34.55426 | -58.42466 | 32 ft | 0 kts | 128° |
| 2026-05-05 11:28 | -34.55427 | -58.42465 | 32 ft | 1 kts | 128° |
| 2026-05-05 11:28 | -34.55459 | -58.42410 | 33 ft | 24 kts | 125° |
| 2026-05-05 11:28 | -34.55720 | -58.41941 | 33 ft | 110 kts | 124° |
| 2026-05-05 11:29 | -34.56301 | -58.40899 | 169 ft | 173 kts | 124° |
| 2026-05-05 11:29 | -34.56954 | -58.39727 | 1313 ft | 166 kts | 124° |
| 2026-05-05 11:29 | -34.57458 | -58.38526 | 2293 ft | 154 kts | 101° |
| 2026-05-05 11:29 | -34.57493 | -58.37269 | 2946 ft | 151 kts | 73° |
| 2026-05-05 11:30 | -34.56972 | -58.36007 | 3044 ft | 186 kts | 44° |
| 2026-05-05 11:30 | -34.55906 | -58.34941 | 3338 ft | 214 kts | 33° |
| 2026-05-05 11:30 | -34.54679 | -58.33795 | 4019 ft | 227 kts | 34° |
| 2026-05-05 11:30 | -34.53403 | -58.32625 | 4914 ft | 232 kts | 32° |
| 2026-05-05 11:31 | -34.52080 | -58.31482 | 5862 ft | 234 kts | 27° |
| 2026-05-05 11:31 | -34.50613 | -58.30694 | 6852 ft | 229 kts | 9° |
| 2026-05-05 11:31 | -34.49058 | -58.30497 | 7851 ft | 222 kts | 353° |
| 2026-05-05 11:31 | -34.47542 | -58.30737 | 8797 ft | 218 kts | 343° |
| 2026-05-05 11:32 | -34.46033 | -58.31185 | 9443 ft | 232 kts | 341° |
| 2026-05-05 11:32 | -34.44395 | -58.31714 | 9817 ft | 256 kts | 341° |
| 2026-05-05 11:32 | -34.42608 | -58.32312 | 10296 ft | 275 kts | 340° |
| 2026-05-05 11:32 | -34.40742 | -58.32931 | 10911 ft | 287 kts | 340° |
| 2026-05-05 11:33 | -34.38807 | -58.33670 | 11682 ft | 288 kts | 330° |
| 2026-05-05 11:33 | -34.37109 | -58.34888 | 12482 ft | 288 kts | 321° |
| 2026-05-05 11:33 | -34.35446 | -58.36278 | 13164 ft | 295 kts | 320° |
| 2026-05-05 11:33 | -34.33731 | -58.37760 | 13598 ft | 311 kts | 320° |
| 2026-05-05 11:34 | -34.31946 | -58.39324 | 14083 ft | 322 kts | 319° |
| 2026-05-05 11:34 | -34.30122 | -58.40928 | 14805 ft | 325 kts | 319° |
| 2026-05-05 11:34 | -34.28291 | -58.42535 | 15568 ft | 326 kts | 319° |
| 2026-05-05 11:34 | -34.26448 | -58.44146 | 16325 ft | 328 kts | 319° |
| 2026-05-05 11:35 | -34.24595 | -58.45765 | 17068 ft | 329 kts | 319° |
| 2026-05-05 11:35 | -34.22731 | -58.47394 | 17795 ft | 331 kts | 319° |
| 2026-05-05 11:35 | -34.20858 | -58.49030 | 18491 ft | 334 kts | 319° |
| 2026-05-05 11:35 | -34.18969 | -58.50677 | 19174 ft | 336 kts | 319° |
| 2026-05-05 11:36 | -34.17088 | -58.52349 | 19844 ft | 337 kts | 316° |
| 2026-05-05 11:36 | -34.15402 | -58.54293 | 20472 ft | 335 kts | 306° |
| 2026-05-05 11:36 | -34.14111 | -58.56619 | 21082 ft | 334 kts | 294° |
| 2026-05-05 11:36 | -34.13302 | -58.59241 | 21680 ft | 335 kts | 283° |
| 2026-05-05 11:37 | -34.13006 | -58.62034 | 22263 ft | 338 kts | 272° |
| 2026-05-05 11:37 | -34.13193 | -58.64879 | 22845 ft | 342 kts | 265° |
| 2026-05-05 11:37 | -34.13549 | -58.67726 | 23428 ft | 344 kts | 264° |
| 2026-05-05 11:37 | -34.13916 | -58.70583 | 23977 ft | 346 kts | 264° |
| 2026-05-05 11:38 | -34.14267 | -58.73467 | 24509 ft | 348 kts | 264° |
| 2026-05-05 11:38 | -34.14599 | -58.76370 | 24999 ft | 351 kts | 265° |
| 2026-05-05 11:38 | -34.14921 | -58.79298 | 25462 ft | 354 kts | 265° |
| 2026-05-05 11:38 | -34.15248 | -58.82258 | 25906 ft | 357 kts | 265° |
| 2026-05-05 11:39 | -34.15577 | -58.85246 | 26339 ft | 360 kts | 265° |
| 2026-05-05 11:39 | -34.15908 | -58.88255 | 26776 ft | 363 kts | 264° |
| 2026-05-05 11:39 | -34.16239 | -58.91282 | 27214 ft | 365 kts | 265° |
| 2026-05-05 11:39 | -34.16409 | -58.94372 | 27451 ft | 372 kts | 272° |
| 2026-05-05 11:40 | -34.16155 | -58.97489 | 27616 ft | 380 kts | 281° |
| 2026-05-05 11:40 | -34.15384 | -59.00581 | 27960 ft | 385 kts | 290° |
| 2026-05-05 11:40 | -34.14128 | -59.03450 | 28355 ft | 390 kts | 300° |
| 2026-05-05 11:40 | -34.12461 | -59.06077 | 28562 ft | 400 kts | 306° |
| 2026-05-05 11:41 | -34.10635 | -59.08653 | 28671 ft | 409 kts | 307° |
| 2026-05-05 11:41 | -34.08752 | -59.11274 | 28785 ft | 417 kts | 307° |
| 2026-05-05 11:41 | -34.06849 | -59.13963 | 29008 ft | 422 kts | 307° |
| 2026-05-05 11:41 | -34.04960 | -59.16677 | 29352 ft | 423 kts | 306° |
| 2026-05-05 11:42 | -34.03081 | -59.19411 | 29690 ft | 425 kts | 306° |
| 2026-05-05 11:42 | -34.01197 | -59.22157 | 30070 ft | 425 kts | 306° |
| 2026-05-05 11:42 | -33.99333 | -59.24853 | 30541 ft | 423 kts | 305° |
| 2026-05-05 11:42 | -33.97448 | -59.27565 | 31005 ft | 420 kts | 306° |
| 2026-05-05 11:43 | -33.95577 | -59.30251 | 31467 ft | 418 kts | 305° |
| 2026-05-05 11:43 | -33.93707 | -59.32931 | 31967 ft | 415 kts | 305° |
| 2026-05-05 11:43 | -33.91860 | -59.35580 | 32442 ft | 413 kts | 304° |
| 2026-05-05 11:43 | -33.90025 | -59.38220 | 32917 ft | 410 kts | 304° |
| 2026-05-05 11:44 | -33.88196 | -59.40844 | 33373 ft | 407 kts | 304° |
| 2026-05-05 11:44 | -33.86381 | -59.43446 | 33869 ft | 404 kts | 304° |
| 2026-05-05 11:44 | -33.84588 | -59.46014 | 34452 ft | 397 kts | 304° |
| 2026-05-05 11:44 | -33.82819 | -59.48541 | 34972 ft | 393 kts | 303° |
| 2026-05-05 11:45 | -33.81060 | -59.51057 | 35339 ft | 393 kts | 303° |
| 2026-05-05 11:45 | -33.79303 | -59.53573 | 35648 ft | 393 kts | 303° |
| 2026-05-05 11:45 | -33.77544 | -59.56090 | 36004 ft | 392 kts | 303° |
| 2026-05-05 11:45 | -33.75796 | -59.58590 | 36348 ft | 391 kts | 303° |
| 2026-05-05 11:46 | -33.74049 | -59.61084 | 36684 ft | 390 kts | 303° |
| 2026-05-05 11:46 | -33.72303 | -59.63567 | 36987 ft | 389 kts | 303° |
| 2026-05-05 11:46 | -33.70558 | -59.66050 | 37287 ft | 388 kts | 302° |
| 2026-05-05 11:46 | -33.68821 | -59.68526 | 37595 ft | 387 kts | 302° |
| 2026-05-05 11:47 | -33.67086 | -59.70994 | 37866 ft | 386 kts | 302° |
| 2026-05-05 11:47 | -33.65354 | -59.73454 | 37980 ft | 386 kts | 302° |
| 2026-05-05 11:47 | -33.63622 | -59.75906 | 37978 ft | 385 kts | 303° |
| 2026-05-05 11:48 | -33.58427 | -59.83272 | 37976 ft | 385 kts | 302° |
| 2026-05-05 11:48 | -33.54961 | -59.88168 | 37974 ft | 385 kts | 303° |
| 2026-05-05 11:49 | -33.51495 | -59.93070 | 37975 ft | 385 kts | 302° |
| 2026-05-05 11:49 | -33.48043 | -59.97933 | 37949 ft | 386 kts | 302° |
| 2026-05-05 11:50 | -33.44564 | -60.02835 | 37933 ft | 386 kts | 302° |
| 2026-05-05 11:50 | -33.41093 | -60.07715 | 37992 ft | 385 kts | 303° |
| 2026-05-05 11:51 | -33.37623 | -60.12593 | 37980 ft | 385 kts | 302° |
| 2026-05-05 11:51 | -33.34143 | -60.17474 | 37979 ft | 385 kts | 303° |
| 2026-05-05 11:52 | -33.30665 | -60.22342 | 37979 ft | 385 kts | 303° |
| 2026-05-05 11:52 | -33.27183 | -60.27207 | 37979 ft | 385 kts | 303° |
| 2026-05-05 11:53 | -33.23700 | -60.32085 | 37944 ft | 386 kts | 303° |
| 2026-05-05 11:53 | -33.20209 | -60.36953 | 37949 ft | 386 kts | 303° |
| 2026-05-05 11:54 | -33.16715 | -60.41821 | 37948 ft | 386 kts | 303° |
| 2026-05-05 11:54 | -33.13225 | -60.46673 | 37984 ft | 385 kts | 303° |
| 2026-05-05 11:55 | -33.09742 | -60.51522 | 37981 ft | 385 kts | 303° |
| 2026-05-05 11:55 | -33.06248 | -60.56368 | 37981 ft | 385 kts | 303° |
| 2026-05-05 11:56 | -33.02753 | -60.61209 | 37981 ft | 385 kts | 303° |
| 2026-05-05 11:56 | -32.99260 | -60.66047 | 37981 ft | 385 kts | 303° |
| 2026-05-05 11:57 | -32.95761 | -60.70886 | 37976 ft | 385 kts | 303° |
| 2026-05-05 11:57 | -32.92392 | -60.75822 | 37948 ft | 381 kts | 297° |
| 2026-05-05 11:58 | -32.90090 | -60.81380 | 37952 ft | 371 kts | 284° |
| 2026-05-05 11:58 | -32.89041 | -60.87304 | 37957 ft | 368 kts | 277° |
| 2026-05-05 11:59 | -32.88191 | -60.93304 | 37954 ft | 368 kts | 277° |
| 2026-05-05 11:59 | -32.87265 | -60.99297 | 37957 ft | 368 kts | 278° |
| 2026-05-05 12:00 | -32.86325 | -61.05283 | 37960 ft | 368 kts | 278° |
| 2026-05-05 12:00 | -32.85396 | -61.11264 | 37961 ft | 368 kts | 278° |
| 2026-05-05 12:01 | -32.84465 | -61.17259 | 37967 ft | 368 kts | 278° |
| 2026-05-05 12:01 | -32.83528 | -61.23240 | 37979 ft | 368 kts | 278° |
| 2026-05-05 12:02 | -32.82591 | -61.29222 | 37976 ft | 368 kts | 278° |
| 2026-05-05 12:02 | -32.81646 | -61.35205 | 37981 ft | 368 kts | 278° |
| 2026-05-05 12:03 | -32.80705 | -61.41186 | 37982 ft | 368 kts | 279° |
| 2026-05-05 12:03 | -32.79764 | -61.47127 | 37984 ft | 368 kts | 278° |
| 2026-05-05 12:04 | -32.78812 | -61.53106 | 37986 ft | 368 kts | 279° |
| 2026-05-05 12:04 | -32.77861 | -61.59080 | 37984 ft | 368 kts | 279° |
| 2026-05-05 12:05 | -32.76905 | -61.65058 | 37987 ft | 368 kts | 279° |
| 2026-05-05 12:05 | -32.75945 | -61.71037 | 37984 ft | 368 kts | 278° |
| 2026-05-05 12:06 | -32.74984 | -61.77007 | 37987 ft | 368 kts | 279° |
| 2026-05-05 12:06 | -32.74020 | -61.82974 | 37985 ft | 368 kts | 279° |
| 2026-05-05 12:07 | -32.73057 | -61.88907 | 37985 ft | 368 kts | 279° |
| 2026-05-05 12:07 | -32.72090 | -61.94867 | 37985 ft | 368 kts | 279° |
| 2026-05-05 12:08 | -32.71119 | -62.00830 | 37984 ft | 368 kts | 279° |
| 2026-05-05 12:08 | -32.70147 | -62.06789 | 37986 ft | 368 kts | 279° |
| 2026-05-05 12:09 | -32.69168 | -62.12755 | 37986 ft | 367 kts | 279° |
| 2026-05-05 12:09 | -32.68178 | -62.18707 | 37985 ft | 368 kts | 279° |
| 2026-05-05 12:10 | -32.67094 | -62.24635 | 37986 ft | 368 kts | 281° |
| 2026-05-05 12:10 | -32.66000 | -62.30565 | 37982 ft | 368 kts | 280° |
| 2026-05-05 12:11 | -32.64938 | -62.36459 | 37981 ft | 368 kts | 280° |
| 2026-05-05 12:11 | -32.63862 | -62.42384 | 37982 ft | 367 kts | 280° |
| 2026-05-05 12:12 | -32.62779 | -62.48314 | 37981 ft | 367 kts | 280° |
| 2026-05-05 12:12 | -32.61881 | -62.53237 | 37976 ft | 367 kts | 281° |
| 2026-05-05 12:13 | -32.60786 | -62.59198 | 37973 ft | 367 kts | 280° |
| 2026-05-05 12:13 | -32.59704 | -62.65074 | 37983 ft | 367 kts | 280° |
| 2026-05-05 12:14 | -32.58617 | -62.70997 | 37981 ft | 367 kts | 280° |
| 2026-05-05 12:14 | -32.57526 | -62.76903 | 37980 ft | 367 kts | 280° |
| 2026-05-05 12:15 | -32.56432 | -62.82807 | 37977 ft | 367 kts | 280° |
| 2026-05-05 12:15 | -32.55332 | -62.88711 | 37974 ft | 367 kts | 280° |
| 2026-05-05 12:16 | -32.54235 | -62.94609 | 37970 ft | 367 kts | 281° |
| 2026-05-05 12:16 | -32.53128 | -63.00518 | 37965 ft | 367 kts | 280° |
| 2026-05-05 12:17 | -32.52020 | -63.06411 | 37964 ft | 367 kts | 281° |
| 2026-05-05 12:17 | -32.50914 | -63.12311 | 37971 ft | 366 kts | 281° |
| 2026-05-05 12:18 | -32.49808 | -63.18206 | 37962 ft | 367 kts | 281° |
| 2026-05-05 12:18 | -32.48696 | -63.24099 | 37957 ft | 367 kts | 281° |
| 2026-05-05 12:19 | -32.47577 | -63.29988 | 37956 ft | 367 kts | 281° |
| 2026-05-05 12:19 | -32.46456 | -63.35884 | 37937 ft | 367 kts | 281° |
| 2026-05-05 12:20 | -32.45337 | -63.41786 | 37907 ft | 368 kts | 281° |
| 2026-05-05 12:20 | -32.44215 | -63.47651 | 37942 ft | 367 kts | 281° |
| 2026-05-05 12:21 | -32.43081 | -63.53553 | 37942 ft | 368 kts | 280° |
| 2026-05-05 12:21 | -32.41949 | -63.59455 | 37950 ft | 368 kts | 281° |
| 2026-05-05 12:22 | -32.40809 | -63.65360 | 37948 ft | 368 kts | 281° |
| 2026-05-05 12:22 | -32.39667 | -63.71280 | 37907 ft | 369 kts | 281° |
| 2026-05-05 12:23 | -32.38516 | -63.77222 | 37885 ft | 371 kts | 281° |
| 2026-05-05 12:23 | -32.37358 | -63.83199 | 37883 ft | 374 kts | 281° |
| 2026-05-05 12:24 | -32.36187 | -63.89219 | 37893 ft | 376 kts | 281° |
| 2026-05-05 12:24 | -32.35005 | -63.95266 | 37944 ft | 377 kts | 281° |
| 2026-05-05 12:25 | -32.33819 | -64.01318 | 37969 ft | 378 kts | 281° |
| 2026-05-05 12:25 | -32.32641 | -64.07322 | 37970 ft | 377 kts | 282° |
| 2026-05-05 12:26 | -32.31458 | -64.13332 | 37968 ft | 375 kts | 281° |
| 2026-05-05 12:26 | -32.30276 | -64.19318 | 37948 ft | 373 kts | 281° |
| 2026-05-05 12:27 | -32.29094 | -64.25296 | 37904 ft | 373 kts | 281° |
| 2026-05-05 12:27 | -32.27912 | -64.31273 | 37882 ft | 374 kts | 281° |
| 2026-05-05 12:28 | -32.26718 | -64.37271 | 37880 ft | 376 kts | 281° |
| 2026-05-05 12:28 | -32.25514 | -64.43294 | 37911 ft | 377 kts | 282° |
| 2026-05-05 12:29 | -32.24306 | -64.49331 | 37969 ft | 377 kts | 282° |
| 2026-05-05 12:29 | -32.23099 | -64.55357 | 37967 ft | 377 kts | 282° |
| 2026-05-05 12:30 | -32.21893 | -64.61371 | 37967 ft | 375 kts | 281° |
| 2026-05-05 12:30 | -32.20685 | -64.67356 | 37959 ft | 374 kts | 281° |
| 2026-05-05 12:31 | -32.19479 | -64.73326 | 37916 ft | 373 kts | 281° |
| 2026-05-05 12:31 | -32.18273 | -64.79285 | 37875 ft | 374 kts | 281° |
| 2026-05-05 12:32 | -32.17058 | -64.85263 | 37877 ft | 375 kts | 281° |
| 2026-05-05 12:32 | -32.15835 | -64.91263 | 37883 ft | 377 kts | 281° |
| 2026-05-05 12:33 | -32.14604 | -64.97291 | 37937 ft | 378 kts | 281° |
| 2026-05-05 12:33 | -32.13378 | -65.03279 | 37965 ft | 378 kts | 282° |
| 2026-05-05 12:34 | -32.12145 | -65.09300 | 37984 ft | 377 kts | 281° |
| 2026-05-05 12:34 | -32.10913 | -65.15292 | 37981 ft | 374 kts | 281° |
| 2026-05-05 12:35 | -32.09683 | -65.21247 | 37980 ft | 372 kts | 281° |
| 2026-05-05 12:35 | -32.08460 | -65.27157 | 37942 ft | 370 kts | 281° |
| 2026-05-05 12:36 | -32.07241 | -65.33055 | 37899 ft | 370 kts | 281° |
| 2026-05-05 12:36 | -32.06015 | -65.38955 | 37893 ft | 371 kts | 281° |
| 2026-05-05 12:37 | -32.04776 | -65.44883 | 37890 ft | 374 kts | 281° |
| 2026-05-05 12:37 | -32.03531 | -65.50860 | 37895 ft | 377 kts | 281° |
| 2026-05-05 12:38 | -32.02278 | -65.56857 | 37950 ft | 377 kts | 281° |
| 2026-05-05 12:38 | -32.01017 | -65.62867 | 37975 ft | 377 kts | 281° |
| 2026-05-05 12:39 | -31.99756 | -65.68857 | 37977 ft | 376 kts | 281° |
| 2026-05-05 12:39 | -31.98499 | -65.74815 | 37958 ft | 375 kts | 281° |
| 2026-05-05 12:40 | -31.97235 | -65.80805 | 37946 ft | 377 kts | 281° |
| 2026-05-05 12:40 | -31.95963 | -65.86793 | 37942 ft | 376 kts | 281° |
| 2026-05-05 12:41 | -31.94701 | -65.92773 | 37940 ft | 377 kts | 281° |
| 2026-05-05 12:41 | -31.93428 | -65.98759 | 37947 ft | 377 kts | 281° |
| 2026-05-05 12:42 | -31.92163 | -66.04682 | 37549 ft | 367 kts | 282° |
| 2026-05-05 12:42 | -31.91539 | -66.07590 | 37178 ft | 366 kts | 282° |
| 2026-05-05 12:42 | -31.90916 | -66.10493 | 36806 ft | 366 kts | 282° |
| 2026-05-05 12:43 | -31.90292 | -66.13399 | 36433 ft | 367 kts | 282° |
| 2026-05-05 12:43 | -31.89675 | -66.16279 | 36065 ft | 367 kts | 282° |
| 2026-05-05 12:43 | -31.89050 | -66.19199 | 35693 ft | 368 kts | 282° |
| 2026-05-05 12:43 | -31.88413 | -66.22164 | 35315 ft | 370 kts | 282° |
| 2026-05-05 12:44 | -31.87779 | -66.25106 | 34943 ft | 371 kts | 282° |
| 2026-05-05 12:44 | -31.87150 | -66.28014 | 34576 ft | 372 kts | 282° |
| 2026-05-05 12:44 | -31.86511 | -66.30972 | 34204 ft | 374 kts | 283° |
| 2026-05-05 12:44 | -31.85871 | -66.33935 | 33832 ft | 375 kts | 283° |
| 2026-05-05 12:45 | -31.85228 | -66.36911 | 33459 ft | 376 kts | 283° |
| 2026-05-05 12:45 | -31.84581 | -66.39895 | 33088 ft | 378 kts | 283° |
| 2026-05-05 12:45 | -31.83930 | -66.42896 | 32715 ft | 379 kts | 283° |
| 2026-05-05 12:45 | -31.83277 | -66.45903 | 32343 ft | 381 kts | 283° |
| 2026-05-05 12:46 | -31.82619 | -66.48931 | 31970 ft | 383 kts | 283° |
| 2026-05-05 12:46 | -31.81956 | -66.51973 | 31598 ft | 385 kts | 283° |
| 2026-05-05 12:46 | -31.81309 | -66.54933 | 31239 ft | 386 kts | 284° |
| 2026-05-05 12:46 | -31.80643 | -66.57988 | 30867 ft | 386 kts | 283° |
| 2026-05-05 12:47 | -31.79976 | -66.61047 | 30494 ft | 385 kts | 284° |
| 2026-05-05 12:47 | -31.79308 | -66.64091 | 30121 ft | 384 kts | 284° |
| 2026-05-05 12:47 | -31.78658 | -66.67060 | 29756 ft | 383 kts | 284° |
| 2026-05-05 12:47 | -31.77983 | -66.70160 | 29373 ft | 381 kts | 283° |
| 2026-05-05 12:48 | -31.77499 | -66.73216 | 29001 ft | 380 kts | 279° |
| 2026-05-05 12:48 | -31.77126 | -66.76277 | 28630 ft | 379 kts | 278° |
| 2026-05-05 12:48 | -31.76775 | -66.79335 | 28233 ft | 375 kts | 278° |
| 2026-05-05 12:48 | -31.76429 | -66.82351 | 27646 ft | 370 kts | 278° |
| 2026-05-05 12:49 | -31.76080 | -66.85334 | 26991 ft | 368 kts | 278° |
| 2026-05-05 12:49 | -31.75723 | -66.88308 | 26353 ft | 366 kts | 278° |
| 2026-05-05 12:49 | -31.75367 | -66.91262 | 25719 ft | 364 kts | 278° |
| 2026-05-05 12:49 | -31.75014 | -66.94195 | 25095 ft | 361 kts | 278° |
| 2026-05-05 12:50 | -31.74664 | -66.97108 | 24471 ft | 359 kts | 278° |
| 2026-05-05 12:50 | -31.74317 | -67.00004 | 23849 ft | 357 kts | 278° |
| 2026-05-05 12:50 | -31.73972 | -67.02885 | 23237 ft | 355 kts | 278° |
| 2026-05-05 12:50 | -31.73627 | -67.05743 | 22635 ft | 352 kts | 278° |
| 2026-05-05 12:51 | -31.73286 | -67.08572 | 22039 ft | 349 kts | 278° |
| 2026-05-05 12:51 | -31.72943 | -67.11388 | 21455 ft | 346 kts | 278° |
| 2026-05-05 12:51 | -31.72605 | -67.14170 | 20866 ft | 343 kts | 278° |
| 2026-05-05 12:51 | -31.72268 | -67.16931 | 20280 ft | 340 kts | 278° |
| 2026-05-05 12:52 | -31.71935 | -67.19672 | 19685 ft | 337 kts | 278° |
| 2026-05-05 12:52 | -31.71607 | -67.22383 | 19099 ft | 334 kts | 278° |
| 2026-05-05 12:52 | -31.71277 | -67.25087 | 18646 ft | 335 kts | 278° |
| 2026-05-05 12:52 | -31.70943 | -67.27787 | 18270 ft | 334 kts | 278° |
| 2026-05-05 12:53 | -31.70612 | -67.30488 | 17895 ft | 332 kts | 278° |
| 2026-05-05 12:53 | -31.70285 | -67.33164 | 17522 ft | 331 kts | 278° |
| 2026-05-05 12:53 | -31.69958 | -67.35830 | 17149 ft | 329 kts | 278° |
| 2026-05-05 12:53 | -31.69631 | -67.38488 | 16775 ft | 328 kts | 278° |
| 2026-05-05 12:54 | -31.68975 | -67.43767 | 16026 ft | 325 kts | 278° |
| 2026-05-05 12:54 | -31.68651 | -67.46388 | 15653 ft | 324 kts | 277° |
| 2026-05-05 12:54 | -31.68437 | -67.48121 | 15405 ft | 324 kts | 278° |
| 2026-05-05 12:55 | -31.68114 | -67.50732 | 15031 ft | 322 kts | 278° |
| 2026-05-05 12:55 | -31.67790 | -67.53332 | 14657 ft | 321 kts | 278° |
| 2026-05-05 12:55 | -31.67469 | -67.55919 | 14285 ft | 320 kts | 278° |
| 2026-05-05 12:55 | -31.67147 | -67.58498 | 13914 ft | 319 kts | 278° |
| 2026-05-05 12:56 | -31.66837 | -67.60995 | 13583 ft | 317 kts | 278° |
| 2026-05-05 12:56 | -31.66496 | -67.63631 | 13426 ft | 319 kts | 278° |
| 2026-05-05 12:56 | -31.66172 | -67.66192 | 13088 ft | 314 kts | 278° |
| 2026-05-05 12:56 | -31.65861 | -67.68711 | 12543 ft | 311 kts | 277° |
| 2026-05-05 12:57 | -31.65549 | -67.71222 | 11958 ft | 310 kts | 278° |
| 2026-05-05 12:57 | -31.65235 | -67.73721 | 11372 ft | 310 kts | 278° |
| 2026-05-05 12:57 | -31.64924 | -67.76192 | 10742 ft | 312 kts | 278° |
| 2026-05-05 12:57 | -31.64603 | -67.78724 | 10065 ft | 315 kts | 279° |
| 2026-05-05 12:58 | -31.64278 | -67.81276 | 9507 ft | 315 kts | 279° |
| 2026-05-05 12:58 | -31.64045 | -67.83790 | 9277 ft | 305 kts | 270° |
| 2026-05-05 12:58 | -31.64353 | -67.86203 | 9142 ft | 294 kts | 257° |
| 2026-05-05 12:58 | -31.64897 | -67.88521 | 8813 ft | 290 kts | 255° |
| 2026-05-05 12:59 | -31.65479 | -67.90770 | 8414 ft | 291 kts | 254° |
| 2026-05-05 12:59 | -31.66054 | -67.93049 | 8203 ft | 291 kts | 255° |
| 2026-05-05 12:59 | -31.66603 | -67.95332 | 8004 ft | 290 kts | 256° |
| 2026-05-05 13:00 | -31.67667 | -67.99879 | 7605 ft | 288 kts | 256° |
| 2026-05-05 13:00 | -31.68207 | -68.02145 | 7405 ft | 287 kts | 255° |
| 2026-05-05 13:01 | -31.69806 | -68.08892 | 6903 ft | 285 kts | 255° |
| 2026-05-05 13:01 | -31.70334 | -68.11140 | 6903 ft | 285 kts | 255° |
| 2026-05-05 13:01 | -31.70861 | -68.13383 | 6906 ft | 285 kts | 255° |
| 2026-05-05 13:01 | -31.71384 | -68.15605 | 6904 ft | 276 kts | 255° |
| 2026-05-05 13:02 | -31.71886 | -68.17728 | 6826 ft | 265 kts | 255° |
| 2026-05-05 13:02 | -31.72376 | -68.19804 | 6504 ft | 264 kts | 255° |
| 2026-05-05 13:02 | -31.72866 | -68.21879 | 6154 ft | 263 kts | 255° |
| 2026-05-05 13:02 | -31.73353 | -68.23950 | 5826 ft | 263 kts | 255° |
| 2026-05-05 13:03 | -31.73832 | -68.26003 | 5610 ft | 258 kts | 255° |
| 2026-05-05 13:03 | -31.74302 | -68.28006 | 5416 ft | 251 kts | 255° |
| 2026-05-05 13:03 | -31.74759 | -68.29949 | 5283 ft | 243 kts | 256° |
| 2026-05-05 13:03 | -31.75024 | -68.31866 | 5154 ft | 234 kts | 268° |
| 2026-05-05 13:04 | -31.75039 | -68.33751 | 4991 ft | 228 kts | 272° |
| 2026-05-05 13:04 | -31.75010 | -68.35576 | 4863 ft | 218 kts | 271° |
| 2026-05-05 13:04 | -31.75016 | -68.37318 | 4738 ft | 209 kts | 270° |
| 2026-05-05 13:04 | -31.75039 | -68.39001 | 4612 ft | 202 kts | 270° |
| 2026-05-05 13:05 | -31.74806 | -68.40581 | 4449 ft | 195 kts | 298° |
| 2026-05-05 13:05 | -31.73851 | -68.41620 | 4248 ft | 189 kts | 340° |
| 2026-05-05 13:05 | -31.72584 | -68.41789 | 4184 ft | 178 kts | 2° |
| 2026-05-05 13:05 | -31.71382 | -68.41711 | 4137 ft | 169 kts | 2° |
| 2026-05-05 13:06 | -31.70218 | -68.41687 | 3955 ft | 166 kts | 359° |
| 2026-05-05 13:06 | -31.69073 | -68.41703 | 3760 ft | 163 kts | 359° |
| 2026-05-05 13:06 | -31.67972 | -68.41720 | 3596 ft | 152 kts | 359° |
| 2026-05-05 13:06 | -31.66971 | -68.41729 | 3604 ft | 142 kts | 359° |
| 2026-05-05 13:07 | -31.65976 | -68.41741 | 3600 ft | 138 kts | 359° |
| 2026-05-05 13:07 | -31.65021 | -68.41750 | 3429 ft | 137 kts | 359° |
| 2026-05-05 13:07 | -31.64070 | -68.41757 | 3228 ft | 136 kts | 359° |
| 2026-05-05 13:07 | -31.63123 | -68.41740 | 3013 ft | 137 kts | 1° |
| 2026-05-05 13:08 | -31.62170 | -68.41683 | 2835 ft | 137 kts | 2° |
| 2026-05-05 13:08 | -31.61215 | -68.41663 | 2639 ft | 137 kts | 359° |
| 2026-05-05 13:08 | -31.60279 | -68.41672 | 2442 ft | 137 kts | 359° |
| 2026-05-05 13:08 | -31.59333 | -68.41688 | 2233 ft | 135 kts | 358° |
| 2026-05-05 13:09 | -31.58397 | -68.41700 | 2032 ft | 134 kts | 358° |
| 2026-05-05 13:09 | -31.57515 | -68.41709 | 1974 ft | 110 kts | 359° |
| 2026-05-05 13:09 | -31.56926 | -68.41716 | 1974 ft | 54 kts | 358° |
| 2026-05-05 13:09 | -31.56766 | -68.41716 | 1974 ft | 10 kts | 321° |
| 2026-05-05 13:10 | -31.56785 | -68.41744 | 1974 ft | 7 kts | 215° |
| 2026-05-05 13:10 | -31.56840 | -68.41806 | 1974 ft | 13 kts | 223° |
| 2026-05-05 13:10 | -31.56917 | -68.41890 | 1974 ft | 17 kts | 223° |
| 2026-05-05 13:10 | -31.56958 | -68.41938 | 1974 ft | 0 kts | 224° |
| 2026-05-05 13:11 | -31.56960 | -68.41940 | 1974 ft | 2 kts | 224° |
| 2026-05-05 13:11 | -31.56995 | -68.41979 | 1974 ft | 11 kts | 224° |
| 2026-05-05 13:12 | -31.57055 | -68.42048 | 1974 ft | 13 kts | 225° |
| 2026-05-05 13:12 | -31.57112 | -68.42056 | 1974 ft | 8 kts | 150° |
| 2026-05-05 13:12 | -31.57175 | -68.42034 | 1974 ft | 11 kts | 169° |
| 2026-05-05 13:12 | -31.57236 | -68.42049 | 1974 ft | 4 kts | 277° |
| 2026-05-05 13:13 | -31.57222 | -68.42067 | 1974 ft | 3 kts | 312° |
| 2026-05-05 13:13 | -31.57210 | -68.42083 | 1974 ft | 1 kts | 312° |